sensor_id;sensor_type;location;lat;lon;timestamp;P1;durP1;ratioP1;P2;durP2;ratioP2
29362;SDS011;16349;53.672;10.014;2022-08-21T00:00:20;8.10;;;6.20;;
29362;SDS011;16349;53.672;10.014;2022-08-21T00:02:49;6.23;;;5.67;;
29362;SDS011;16349;53.672;10.014;2022-08-21T00:05:18;9.27;;;5.50;;
29362;SDS011;16349;53.672;10.014;2022-08-21T00:07:45;6.70;;;5.40;;
29362;SDS011;16349;53.672;10.014;2022-08-21T00:10:12;6.43;;;4.93;;
29362;SDS011;16349;53.672;10.014;2022-08-21T00:12:42;8.50;;;5.20;;
29362;SDS011;16349;53.672;10.014;2022-08-21T00:15:11;7.67;;;5.07;;
29362;SDS011;16349;53.672;10.014;2022-08-21T00:17:40;9.00;;;5.67;;
29362;SDS011;16349;53.672;10.014;2022-08-21T00:20:08;6.47;;;5.50;;
29362;SDS011;16349;53.672;10.014;2022-08-21T00:22:36;6.23;;;4.93;;
29362;SDS011;16349;53.672;10.014;2022-08-21T00:25:04;5.63;;;4.47;;
29362;SDS011;16349;53.672;10.014;2022-08-21T00:27:32;6.30;;;4.60;;
29362;SDS011;16349;53.672;10.014;2022-08-21T00:30:01;5.70;;;4.30;;
29362;SDS011;16349;53.672;10.014;2022-08-21T00:32:29;6.43;;;4.93;;
29362;SDS011;16349;53.672;10.014;2022-08-21T00:34:56;5.83;;;4.07;;
29362;SDS011;16349;53.672;10.014;2022-08-21T00:37:23;5.27;;;4.63;;
29362;SDS011;16349;53.672;10.014;2022-08-21T00:39:50;4.87;;;4.30;;
29362;SDS011;16349;53.672;10.014;2022-08-21T00:42:18;6.07;;;4.30;;
29362;SDS011;16349;53.672;10.014;2022-08-21T00:44:46;5.77;;;3.87;;
29362;SDS011;16349;53.672;10.014;2022-08-21T00:47:16;4.33;;;3.93;;
29362;SDS011;16349;53.672;10.014;2022-08-21T00:49:43;5.23;;;4.30;;
29362;SDS011;16349;53.672;10.014;2022-08-21T00:52:11;6.50;;;3.83;;
29362;SDS011;16349;53.672;10.014;2022-08-21T00:54:42;4.23;;;3.40;;
29362;SDS011;16349;53.672;10.014;2022-08-21T00:57:10;5.23;;;4.37;;
29362;SDS011;16349;53.672;10.014;2022-08-21T00:59:41;4.87;;;3.47;;
29362;SDS011;16349;53.672;10.014;2022-08-21T01:02:10;4.10;;;3.50;;
29362;SDS011;16349;53.672;10.014;2022-08-21T01:04:39;6.37;;;3.57;;
29362;SDS011;16349;53.672;10.014;2022-08-21T01:07:06;5.30;;;3.23;;
29362;SDS011;16349;53.672;10.014;2022-08-21T01:09:34;7.33;;;3.90;;
29362;SDS011;16349;53.672;10.014;2022-08-21T01:12:03;5.23;;;3.80;;
29362;SDS011;16349;53.672;10.014;2022-08-21T01:14:30;6.47;;;3.57;;
29362;SDS011;16349;53.672;10.014;2022-08-21T01:16:57;4.33;;;3.77;;
29362;SDS011;16349;53.672;10.014;2022-08-21T01:19:28;3.60;;;3.30;;
29362;SDS011;16349;53.672;10.014;2022-08-21T01:21:57;5.43;;;3.60;;
29362;SDS011;16349;53.672;10.014;2022-08-21T01:24:24;4.97;;;4.03;;
29362;SDS011;16349;53.672;10.014;2022-08-21T01:26:52;3.90;;;3.50;;
29362;SDS011;16349;53.672;10.014;2022-08-21T01:29:23;5.67;;;3.50;;
29362;SDS011;16349;53.672;10.014;2022-08-21T01:31:57;5.90;;;3.90;;
29362;SDS011;16349;53.672;10.014;2022-08-21T01:34:23;6.33;;;4.13;;
29362;SDS011;16349;53.672;10.014;2022-08-21T01:36:50;3.93;;;3.47;;
29362;SDS011;16349;53.672;10.014;2022-08-21T01:39:19;4.50;;;3.73;;
29362;SDS011;16349;53.672;10.014;2022-08-21T01:41:45;5.27;;;3.63;;
29362;SDS011;16349;53.672;10.014;2022-08-21T01:44:13;5.70;;;3.80;;
29362;SDS011;16349;53.672;10.014;2022-08-21T01:46:40;6.63;;;4.10;;
29362;SDS011;16349;53.672;10.014;2022-08-21T01:49:07;5.67;;;3.73;;
29362;SDS011;16349;53.672;10.014;2022-08-21T01:51:34;4.70;;;4.00;;
29362;SDS011;16349;53.672;10.014;2022-08-21T01:54:01;4.87;;;3.60;;
29362;SDS011;16349;53.672;10.014;2022-08-21T01:56:34;4.70;;;3.50;;
29362;SDS011;16349;53.672;10.014;2022-08-21T01:59:02;5.57;;;4.07;;
29362;SDS011;16349;53.672;10.014;2022-08-21T02:01:29;3.83;;;3.50;;
29362;SDS011;16349;53.672;10.014;2022-08-21T02:03:55;4.27;;;3.50;;
29362;SDS011;16349;53.672;10.014;2022-08-21T02:06:23;5.27;;;4.00;;
29362;SDS011;16349;53.672;10.014;2022-08-21T02:08:50;4.27;;;3.83;;
29362;SDS011;16349;53.672;10.014;2022-08-21T02:11:16;4.17;;;3.80;;
29362;SDS011;16349;53.672;10.014;2022-08-21T02:13:45;6.13;;;3.87;;
29362;SDS011;16349;53.672;10.014;2022-08-21T02:16:12;5.67;;;4.00;;
29362;SDS011;16349;53.672;10.014;2022-08-21T02:18:40;4.47;;;3.90;;
29362;SDS011;16349;53.672;10.014;2022-08-21T02:21:07;4.30;;;3.47;;
29362;SDS011;16349;53.672;10.014;2022-08-21T02:23:34;4.53;;;4.00;;
29362;SDS011;16349;53.672;10.014;2022-08-21T02:26:02;6.90;;;4.23;;
29362;SDS011;16349;53.672;10.014;2022-08-21T02:28:31;6.27;;;3.47;;
29362;SDS011;16349;53.672;10.014;2022-08-21T02:31:00;4.13;;;3.73;;
29362;SDS011;16349;53.672;10.014;2022-08-21T02:33:27;4.73;;;3.87;;
29362;SDS011;16349;53.672;10.014;2022-08-21T02:35:55;4.43;;;3.93;;
29362;SDS011;16349;53.672;10.014;2022-08-21T02:38:23;5.47;;;3.90;;
29362;SDS011;16349;53.672;10.014;2022-08-21T02:40:52;4.33;;;3.30;;
29362;SDS011;16349;53.672;10.014;2022-08-21T02:43:21;7.30;;;4.27;;
29362;SDS011;16349;53.672;10.014;2022-08-21T02:45:50;5.07;;;4.10;;
29362;SDS011;16349;53.672;10.014;2022-08-21T02:48:20;3.93;;;3.53;;
29362;SDS011;16349;53.672;10.014;2022-08-21T02:50:52;6.33;;;4.17;;
29362;SDS011;16349;53.672;10.014;2022-08-21T02:53:21;4.23;;;3.80;;
29362;SDS011;16349;53.672;10.014;2022-08-21T02:55:49;4.07;;;3.67;;
29362;SDS011;16349;53.672;10.014;2022-08-21T02:58:22;4.40;;;3.67;;
29362;SDS011;16349;53.672;10.014;2022-08-21T03:00:51;5.03;;;3.90;;
29362;SDS011;16349;53.672;10.014;2022-08-21T03:03:19;4.93;;;3.50;;
29362;SDS011;16349;53.672;10.014;2022-08-21T03:05:48;5.33;;;3.97;;
29362;SDS011;16349;53.672;10.014;2022-08-21T03:08:15;4.50;;;4.07;;
29362;SDS011;16349;53.672;10.014;2022-08-21T03:10:45;5.03;;;3.50;;
29362;SDS011;16349;53.672;10.014;2022-08-21T03:13:14;5.97;;;3.77;;
29362;SDS011;16349;53.672;10.014;2022-08-21T03:15:41;4.60;;;3.70;;
29362;SDS011;16349;53.672;10.014;2022-08-21T03:18:09;4.90;;;3.73;;
29362;SDS011;16349;53.672;10.014;2022-08-21T03:20:38;4.53;;;3.80;;
29362;SDS011;16349;53.672;10.014;2022-08-21T03:23:07;4.73;;;3.33;;
29362;SDS011;16349;53.672;10.014;2022-08-21T03:25:35;6.23;;;3.70;;
29362;SDS011;16349;53.672;10.014;2022-08-21T03:28:02;4.63;;;3.30;;
29362;SDS011;16349;53.672;10.014;2022-08-21T03:30:31;4.60;;;4.10;;
29362;SDS011;16349;53.672;10.014;2022-08-21T03:32:57;5.47;;;3.90;;
29362;SDS011;16349;53.672;10.014;2022-08-21T03:35:25;5.00;;;4.00;;
29362;SDS011;16349;53.672;10.014;2022-08-21T03:37:53;6.93;;;4.23;;
29362;SDS011;16349;53.672;10.014;2022-08-21T03:40:21;5.40;;;3.67;;
29362;SDS011;16349;53.672;10.014;2022-08-21T03:42:49;5.83;;;3.80;;
29362;SDS011;16349;53.672;10.014;2022-08-21T03:45:17;5.10;;;4.40;;
29362;SDS011;16349;53.672;10.014;2022-08-21T03:47:52;5.73;;;3.97;;
29362;SDS011;16349;53.672;10.014;2022-08-21T03:50:22;5.03;;;3.50;;
29362;SDS011;16349;53.672;10.014;2022-08-21T03:52:50;5.00;;;3.80;;
29362;SDS011;16349;53.672;10.014;2022-08-21T03:55:19;4.40;;;3.93;;
29362;SDS011;16349;53.672;10.014;2022-08-21T03:57:46;3.80;;;3.60;;
29362;SDS011;16349;53.672;10.014;2022-08-21T04:00:14;4.60;;;3.67;;
29362;SDS011;16349;53.672;10.014;2022-08-21T04:02:41;6.57;;;3.90;;
29362;SDS011;16349;53.672;10.014;2022-08-21T04:05:09;5.20;;;3.90;;
29362;SDS011;16349;53.672;10.014;2022-08-21T04:07:37;5.17;;;3.83;;
29362;SDS011;16349;53.672;10.014;2022-08-21T04:10:05;6.17;;;3.50;;
29362;SDS011;16349;53.672;10.014;2022-08-21T04:12:34;4.60;;;4.13;;
29362;SDS011;16349;53.672;10.014;2022-08-21T04:15:01;6.50;;;3.37;;
29362;SDS011;16349;53.672;10.014;2022-08-21T04:17:29;6.63;;;4.03;;
29362;SDS011;16349;53.672;10.014;2022-08-21T04:19:55;4.80;;;3.67;;
29362;SDS011;16349;53.672;10.014;2022-08-21T04:22:22;4.47;;;3.47;;
29362;SDS011;16349;53.672;10.014;2022-08-21T04:24:49;8.00;;;3.73;;
29362;SDS011;16349;53.672;10.014;2022-08-21T04:27:16;5.03;;;3.60;;
29362;SDS011;16349;53.672;10.014;2022-08-21T04:29:44;3.97;;;3.57;;
29362;SDS011;16349;53.672;10.014;2022-08-21T04:32:11;3.50;;;3.23;;
29362;SDS011;16349;53.672;10.014;2022-08-21T04:34:38;6.03;;;4.10;;
29362;SDS011;16349;53.672;10.014;2022-08-21T04:37:05;4.13;;;3.73;;
29362;SDS011;16349;53.672;10.014;2022-08-21T04:39:32;6.33;;;4.60;;
29362;SDS011;16349;53.672;10.014;2022-08-21T04:41:59;4.73;;;3.70;;
29362;SDS011;16349;53.672;10.014;2022-08-21T04:44:26;5.20;;;4.17;;
29362;SDS011;16349;53.672;10.014;2022-08-21T04:46:54;4.37;;;3.97;;
29362;SDS011;16349;53.672;10.014;2022-08-21T04:49:21;4.47;;;4.03;;
29362;SDS011;16349;53.672;10.014;2022-08-21T04:51:48;4.10;;;3.80;;
29362;SDS011;16349;53.672;10.014;2022-08-21T04:54:17;4.30;;;3.53;;
29362;SDS011;16349;53.672;10.014;2022-08-21T04:56:47;3.77;;;3.30;;
29362;SDS011;16349;53.672;10.014;2022-08-21T04:59:19;5.10;;;3.90;;
29362;SDS011;16349;53.672;10.014;2022-08-21T05:01:49;4.37;;;3.97;;
29362;SDS011;16349;53.672;10.014;2022-08-21T05:04:21;5.87;;;3.50;;
29362;SDS011;16349;53.672;10.014;2022-08-21T05:06:53;4.40;;;3.40;;
29362;SDS011;16349;53.672;10.014;2022-08-21T05:09:22;3.73;;;3.43;;
29362;SDS011;16349;53.672;10.014;2022-08-21T05:11:50;4.83;;;3.90;;
29362;SDS011;16349;53.672;10.014;2022-08-21T05:14:18;5.00;;;4.50;;
29362;SDS011;16349;53.672;10.014;2022-08-21T05:16:45;4.40;;;3.93;;
29362;SDS011;16349;53.672;10.014;2022-08-21T05:19:12;3.73;;;3.43;;
29362;SDS011;16349;53.672;10.014;2022-08-21T05:21:41;6.40;;;4.53;;
29362;SDS011;16349;53.672;10.014;2022-08-21T05:24:09;4.53;;;3.80;;
29362;SDS011;16349;53.672;10.014;2022-08-21T05:26:37;4.40;;;4.00;;
29362;SDS011;16349;53.672;10.014;2022-08-21T05:29:04;4.83;;;4.03;;
29362;SDS011;16349;53.672;10.014;2022-08-21T05:31:31;4.17;;;3.70;;
29362;SDS011;16349;53.672;10.014;2022-08-21T05:33:58;5.60;;;3.97;;
29362;SDS011;16349;53.672;10.014;2022-08-21T05:36:25;5.30;;;4.50;;
29362;SDS011;16349;53.672;10.014;2022-08-21T05:38:53;4.60;;;3.93;;
29362;SDS011;16349;53.672;10.014;2022-08-21T05:41:19;6.30;;;4.37;;
29362;SDS011;16349;53.672;10.014;2022-08-21T05:43:46;6.47;;;4.40;;
29362;SDS011;16349;53.672;10.014;2022-08-21T05:46:14;4.27;;;3.83;;
29362;SDS011;16349;53.672;10.014;2022-08-21T05:48:41;5.20;;;4.17;;
29362;SDS011;16349;53.672;10.014;2022-08-21T05:51:09;6.20;;;3.77;;
29362;SDS011;16349;53.672;10.014;2022-08-21T05:53:38;6.93;;;4.60;;
29362;SDS011;16349;53.672;10.014;2022-08-21T05:56:06;8.23;;;4.30;;
29362;SDS011;16349;53.672;10.014;2022-08-21T05:58:33;6.03;;;4.10;;
29362;SDS011;16349;53.672;10.014;2022-08-21T06:01:00;4.60;;;3.77;;
29362;SDS011;16349;53.672;10.014;2022-08-21T06:03:29;5.63;;;3.97;;
29362;SDS011;16349;53.672;10.014;2022-08-21T06:05:57;5.03;;;3.90;;
29362;SDS011;16349;53.672;10.014;2022-08-21T06:08:24;5.17;;;3.43;;
29362;SDS011;16349;53.672;10.014;2022-08-21T06:10:52;7.40;;;3.97;;
29362;SDS011;16349;53.672;10.014;2022-08-21T06:13:22;4.43;;;4.00;;
29362;SDS011;16349;53.672;10.014;2022-08-21T06:15:49;6.70;;;3.77;;
29362;SDS011;16349;53.672;10.014;2022-08-21T06:18:26;4.50;;;3.77;;
29362;SDS011;16349;53.672;10.014;2022-08-21T06:20:53;6.40;;;4.17;;
29362;SDS011;16349;53.672;10.014;2022-08-21T06:23:19;5.00;;;3.70;;
29362;SDS011;16349;53.672;10.014;2022-08-21T06:25:46;5.00;;;3.70;;
29362;SDS011;16349;53.672;10.014;2022-08-21T06:28:13;5.73;;;4.30;;
29362;SDS011;16349;53.672;10.014;2022-08-21T06:30:41;4.70;;;3.83;;
29362;SDS011;16349;53.672;10.014;2022-08-21T06:33:08;4.70;;;3.90;;
29362;SDS011;16349;53.672;10.014;2022-08-21T06:35:35;7.00;;;4.03;;
29362;SDS011;16349;53.672;10.014;2022-08-21T06:38:02;9.30;;;4.00;;
29362;SDS011;16349;53.672;10.014;2022-08-21T06:40:29;4.17;;;3.73;;
29362;SDS011;16349;53.672;10.014;2022-08-21T06:43:04;7.07;;;4.00;;
29362;SDS011;16349;53.672;10.014;2022-08-21T06:45:31;6.37;;;3.80;;
29362;SDS011;16349;53.672;10.014;2022-08-21T06:48:00;4.10;;;3.70;;
29362;SDS011;16349;53.672;10.014;2022-08-21T06:50:27;4.90;;;3.67;;
29362;SDS011;16349;53.672;10.014;2022-08-21T06:52:58;5.90;;;3.00;;
29362;SDS011;16349;53.672;10.014;2022-08-21T06:55:25;4.43;;;3.00;;
29362;SDS011;16349;53.672;10.014;2022-08-21T06:57:52;4.50;;;3.27;;
29362;SDS011;16349;53.672;10.014;2022-08-21T07:00:19;4.93;;;3.23;;
29362;SDS011;16349;53.672;10.014;2022-08-21T07:02:47;6.33;;;3.30;;
29362;SDS011;16349;53.672;10.014;2022-08-21T07:05:15;3.97;;;3.07;;
29362;SDS011;16349;53.672;10.014;2022-08-21T07:07:41;5.27;;;2.90;;
29362;SDS011;16349;53.672;10.014;2022-08-21T07:10:08;4.27;;;2.93;;
29362;SDS011;16349;53.672;10.014;2022-08-21T07:12:35;6.13;;;3.00;;
29362;SDS011;16349;53.672;10.014;2022-08-21T07:15:03;4.10;;;2.60;;
29362;SDS011;16349;53.672;10.014;2022-08-21T07:17:30;4.37;;;2.83;;
29362;SDS011;16349;53.672;10.014;2022-08-21T07:19:57;5.90;;;3.30;;
29362;SDS011;16349;53.672;10.014;2022-08-21T07:22:25;4.40;;;2.50;;
29362;SDS011;16349;53.672;10.014;2022-08-21T07:24:53;3.25;;;2.22;;
29362;SDS011;16349;53.672;10.014;2022-08-21T07:27:21;4.57;;;2.63;;
29362;SDS011;16349;53.672;10.014;2022-08-21T07:29:48;5.50;;;2.50;;
29362;SDS011;16349;53.672;10.014;2022-08-21T07:32:15;4.80;;;2.30;;
29362;SDS011;16349;53.672;10.014;2022-08-21T07:34:42;5.20;;;2.80;;
29362;SDS011;16349;53.672;10.014;2022-08-21T07:37:09;2.23;;;1.90;;
29362;SDS011;16349;53.672;10.014;2022-08-21T07:39:38;4.70;;;2.10;;
29362;SDS011;16349;53.672;10.014;2022-08-21T07:42:05;3.13;;;1.83;;
29362;SDS011;16349;53.672;10.014;2022-08-21T07:44:31;6.70;;;1.90;;
29362;SDS011;16349;53.672;10.014;2022-08-21T07:46:59;4.20;;;1.93;;
29362;SDS011;16349;53.672;10.014;2022-08-21T07:49:27;5.53;;;1.57;;
29362;SDS011;16349;53.672;10.014;2022-08-21T07:51:54;4.13;;;2.00;;
29362;SDS011;16349;53.672;10.014;2022-08-21T07:54:21;2.63;;;1.60;;
29362;SDS011;16349;53.672;10.014;2022-08-21T07:56:49;2.13;;;1.60;;
29362;SDS011;16349;53.672;10.014;2022-08-21T07:59:16;4.67;;;1.67;;
29362;SDS011;16349;53.672;10.014;2022-08-21T08:01:43;5.13;;;1.83;;
29362;SDS011;16349;53.672;10.014;2022-08-21T08:04:10;3.00;;;1.43;;
29362;SDS011;16349;53.672;10.014;2022-08-21T08:06:37;5.80;;;1.57;;
29362;SDS011;16349;53.672;10.014;2022-08-21T08:09:04;6.17;;;1.30;;
29362;SDS011;16349;53.672;10.014;2022-08-21T08:11:31;5.83;;;2.10;;
29362;SDS011;16349;53.672;10.014;2022-08-21T08:13:59;2.07;;;1.67;;
29362;SDS011;16349;53.672;10.014;2022-08-21T08:16:28;1.93;;;1.20;;
29362;SDS011;16349;53.672;10.014;2022-08-21T08:18:55;4.23;;;1.60;;
29362;SDS011;16349;53.672;10.014;2022-08-21T08:21:22;2.23;;;1.27;;
29362;SDS011;16349;53.672;10.014;2022-08-21T08:23:49;4.60;;;1.50;;
29362;SDS011;16349;53.672;10.014;2022-08-21T08:26:17;4.63;;;1.63;;
29362;SDS011;16349;53.672;10.014;2022-08-21T08:28:44;5.17;;;1.57;;
29362;SDS011;16349;53.672;10.014;2022-08-21T08:31:13;2.33;;;1.10;;
29362;SDS011;16349;53.672;10.014;2022-08-21T08:33:40;4.83;;;1.20;;
29362;SDS011;16349;53.672;10.014;2022-08-21T08:36:12;3.23;;;1.13;;
29362;SDS011;16349;53.672;10.014;2022-08-21T08:38:40;2.87;;;1.30;;
29362;SDS011;16349;53.672;10.014;2022-08-21T08:41:09;7.73;;;1.93;;
29362;SDS011;16349;53.672;10.014;2022-08-21T08:43:38;2.90;;;1.50;;
29362;SDS011;16349;53.672;10.014;2022-08-21T08:46:10;3.50;;;1.50;;
29362;SDS011;16349;53.672;10.014;2022-08-21T08:48:43;3.63;;;1.20;;
29362;SDS011;16349;53.672;10.014;2022-08-21T08:51:15;4.43;;;1.57;;
29362;SDS011;16349;53.672;10.014;2022-08-21T08:53:48;3.70;;;1.83;;
29362;SDS011;16349;53.672;10.014;2022-08-21T08:56:21;4.10;;;1.60;;
29362;SDS011;16349;53.672;10.014;2022-08-21T08:58:53;3.53;;;1.93;;
29362;SDS011;16349;53.672;10.014;2022-08-21T09:01:26;4.30;;;2.23;;
29362;SDS011;16349;53.672;10.014;2022-08-21T09:03:53;4.97;;;2.07;;
29362;SDS011;16349;53.672;10.014;2022-08-21T09:06:29;3.13;;;1.40;;
29362;SDS011;16349;53.672;10.014;2022-08-21T09:09:07;3.53;;;1.47;;
29362;SDS011;16349;53.672;10.014;2022-08-21T09:11:49;6.37;;;1.87;;
29362;SDS011;16349;53.672;10.014;2022-08-21T09:14:25;6.97;;;1.90;;
29362;SDS011;16349;53.672;10.014;2022-08-21T09:17:04;5.00;;;2.33;;
29362;SDS011;16349;53.672;10.014;2022-08-21T09:19:44;4.20;;;2.10;;
29362;SDS011;16349;53.672;10.014;2022-08-21T09:22:23;6.30;;;2.33;;
29362;SDS011;16349;53.672;10.014;2022-08-21T09:25:02;3.13;;;1.87;;
29362;SDS011;16349;53.672;10.014;2022-08-21T09:27:35;6.97;;;1.77;;
29362;SDS011;16349;53.672;10.014;2022-08-21T09:30:03;6.03;;;1.47;;
29362;SDS011;16349;53.672;10.014;2022-08-21T09:32:34;6.57;;;2.10;;
29362;SDS011;16349;53.672;10.014;2022-08-21T09:35:03;7.20;;;1.87;;
29362;SDS011;16349;53.672;10.014;2022-08-21T09:37:35;5.03;;;1.80;;
29362;SDS011;16349;53.672;10.014;2022-08-21T09:40:18;5.77;;;2.37;;
29362;SDS011;16349;53.672;10.014;2022-08-21T09:42:56;5.47;;;1.90;;
29362;SDS011;16349;53.672;10.014;2022-08-21T09:45:26;3.90;;;1.53;;
29362;SDS011;16349;53.672;10.014;2022-08-21T09:47:54;4.80;;;1.80;;
29362;SDS011;16349;53.672;10.014;2022-08-21T09:50:22;5.80;;;2.10;;
29362;SDS011;16349;53.672;10.014;2022-08-21T09:52:51;11.67;;;2.60;;
29362;SDS011;16349;53.672;10.014;2022-08-21T09:55:23;7.45;;;1.83;;
29362;SDS011;16349;53.672;10.014;2022-08-21T09:58:14;4.57;;;2.03;;
29362;SDS011;16349;53.672;10.014;2022-08-21T10:00:43;5.27;;;1.73;;
29362;SDS011;16349;53.672;10.014;2022-08-21T10:03:13;5.30;;;1.57;;
29362;SDS011;16349;53.672;10.014;2022-08-21T10:05:50;6.97;;;2.00;;
29362;SDS011;16349;53.672;10.014;2022-08-21T10:08:19;4.20;;;2.55;;
29362;SDS011;16349;53.672;10.014;2022-08-21T10:10:49;3.33;;;1.70;;
29362;SDS011;16349;53.672;10.014;2022-08-21T10:13:21;6.95;;;1.52;;
29362;SDS011;16349;53.672;10.014;2022-08-21T10:15:55;5.05;;;1.58;;
29362;SDS011;16349;53.672;10.014;2022-08-21T10:18:35;3.08;;;1.70;;
29362;SDS011;16349;53.672;10.014;2022-08-21T10:21:08;4.82;;;1.70;;
29362;SDS011;16349;53.672;10.014;2022-08-21T10:23:46;6.90;;;1.90;;
29362;SDS011;16349;53.672;10.014;2022-08-21T10:26:25;7.28;;;2.08;;
29362;SDS011;16349;53.672;10.014;2022-08-21T10:29:03;7.25;;;1.60;;
29362;SDS011;16349;53.672;10.014;2022-08-21T10:31:38;2.88;;;1.77;;
29362;SDS011;16349;53.672;10.014;2022-08-21T10:34:16;3.58;;;1.70;;
29362;SDS011;16349;53.672;10.014;2022-08-21T10:37:05;4.22;;;1.98;;
29362;SDS011;16349;53.672;10.014;2022-08-21T10:39:41;4.30;;;1.48;;
29362;SDS011;16349;53.672;10.014;2022-08-21T10:42:24;3.38;;;1.98;;
29362;SDS011;16349;53.672;10.014;2022-08-21T10:45:08;6.40;;;1.80;;
29362;SDS011;16349;53.672;10.014;2022-08-21T10:47:41;3.88;;;2.05;;
29362;SDS011;16349;53.672;10.014;2022-08-21T10:50:19;3.67;;;1.70;;
29362;SDS011;16349;53.672;10.014;2022-08-21T10:53:06;8.65;;;2.00;;
29362;SDS011;16349;53.672;10.014;2022-08-21T10:55:43;3.05;;;2.25;;
29362;SDS011;16349;53.672;10.014;2022-08-21T10:58:16;6.03;;;2.42;;
29362;SDS011;16349;53.672;10.014;2022-08-21T11:00:50;4.72;;;2.03;;
29362;SDS011;16349;53.672;10.014;2022-08-21T11:03:21;3.25;;;1.30;;
29362;SDS011;16349;53.672;10.014;2022-08-21T11:05:57;4.25;;;1.58;;
29362;SDS011;16349;53.672;10.014;2022-08-21T11:08:29;4.05;;;1.45;;
29362;SDS011;16349;53.672;10.014;2022-08-21T11:11:01;2.72;;;1.52;;
29362;SDS011;16349;53.672;10.014;2022-08-21T11:13:32;2.42;;;1.85;;
29362;SDS011;16349;53.672;10.014;2022-08-21T11:16:05;5.38;;;1.48;;
29362;SDS011;16349;53.672;10.014;2022-08-21T11:18:37;3.25;;;1.60;;
29362;SDS011;16349;53.672;10.014;2022-08-21T11:21:15;3.00;;;1.48;;
29362;SDS011;16349;53.672;10.014;2022-08-21T11:23:57;1.67;;;1.30;;
29362;SDS011;16349;53.672;10.014;2022-08-21T11:26:31;1.20;;;1.05;;
29362;SDS011;16349;53.672;10.014;2022-08-21T11:29:04;3.05;;;1.35;;
29362;SDS011;16349;53.672;10.014;2022-08-21T11:31:38;2.10;;;1.67;;
29362;SDS011;16349;53.672;10.014;2022-08-21T11:34:21;1.70;;;1.42;;
29362;SDS011;16349;53.672;10.014;2022-08-21T11:36:58;2.67;;;1.30;;
29362;SDS011;16349;53.672;10.014;2022-08-21T11:39:32;3.75;;;1.60;;
29362;SDS011;16349;53.672;10.014;2022-08-21T11:42:09;2.47;;;1.40;;
29362;SDS011;16349;53.672;10.014;2022-08-21T11:44:48;1.95;;;1.85;;
29362;SDS011;16349;53.672;10.014;2022-08-21T11:47:19;2.08;;;1.08;;
29362;SDS011;16349;53.672;10.014;2022-08-21T11:50:01;2.55;;;1.20;;
29362;SDS011;16349;53.672;10.014;2022-08-21T11:52:40;2.38;;;1.60;;
29362;SDS011;16349;53.672;10.014;2022-08-21T11:55:12;1.45;;;1.27;;
29362;SDS011;16349;53.672;10.014;2022-08-21T11:57:46;2.17;;;1.40;;
29362;SDS011;16349;53.672;10.014;2022-08-21T12:00:19;3.00;;;1.42;;
29362;SDS011;16349;53.672;10.014;2022-08-21T12:02:50;2.03;;;1.17;;
29362;SDS011;16349;53.672;10.014;2022-08-21T12:05:22;1.48;;;1.35;;
29362;SDS011;16349;53.672;10.014;2022-08-21T12:08:01;2.35;;;1.25;;
29362;SDS011;16349;53.672;10.014;2022-08-21T12:10:31;3.63;;;1.30;;
29362;SDS011;16349;53.672;10.014;2022-08-21T12:13:05;1.45;;;1.13;;
29362;SDS011;16349;53.672;10.014;2022-08-21T12:15:34;2.03;;;1.48;;
29362;SDS011;16349;53.672;10.014;2022-08-21T12:18:02;1.73;;;1.35;;
29362;SDS011;16349;53.672;10.014;2022-08-21T12:20:39;2.53;;;1.23;;
29362;SDS011;16349;53.672;10.014;2022-08-21T12:23:17;1.73;;;1.33;;
29362;SDS011;16349;53.672;10.014;2022-08-21T12:25:59;2.35;;;1.30;;
29362;SDS011;16349;53.672;10.014;2022-08-21T12:28:29;1.73;;;1.52;;
29362;SDS011;16349;53.672;10.014;2022-08-21T12:30:57;2.42;;;1.73;;
29362;SDS011;16349;53.672;10.014;2022-08-21T12:33:26;3.15;;;1.45;;
29362;SDS011;16349;53.672;10.014;2022-08-21T12:36:01;3.17;;;1.70;;
29362;SDS011;16349;53.672;10.014;2022-08-21T12:38:33;1.60;;;1.20;;
29362;SDS011;16349;53.672;10.014;2022-08-21T12:41:16;2.28;;;1.02;;
29362;SDS011;16349;53.672;10.014;2022-08-21T12:43:47;2.80;;;1.25;;
29362;SDS011;16349;53.672;10.014;2022-08-21T12:46:24;1.23;;;0.98;;
29362;SDS011;16349;53.672;10.014;2022-08-21T12:48:56;1.65;;;1.00;;
29362;SDS011;16349;53.672;10.014;2022-08-21T12:51:28;1.83;;;1.38;;
29362;SDS011;16349;53.672;10.014;2022-08-21T12:54:00;1.40;;;1.00;;
29362;SDS011;16349;53.672;10.014;2022-08-21T12:56:29;1.70;;;1.13;;
29362;SDS011;16349;53.672;10.014;2022-08-21T12:59:00;2.55;;;1.13;;
29362;SDS011;16349;53.672;10.014;2022-08-21T13:01:31;1.88;;;1.08;;
29362;SDS011;16349;53.672;10.014;2022-08-21T13:04:07;1.55;;;1.00;;
29362;SDS011;16349;53.672;10.014;2022-08-21T13:06:40;1.88;;;0.93;;
29362;SDS011;16349;53.672;10.014;2022-08-21T13:09:11;1.20;;;1.10;;
29362;SDS011;16349;53.672;10.014;2022-08-21T13:11:41;1.52;;;0.90;;
29362;SDS011;16349;53.672;10.014;2022-08-21T13:14:13;1.35;;;0.90;;
29362;SDS011;16349;53.672;10.014;2022-08-21T13:16:52;2.38;;;1.08;;
29362;SDS011;16349;53.672;10.014;2022-08-21T13:19:21;1.88;;;0.90;;
29362;SDS011;16349;53.672;10.014;2022-08-21T13:21:48;2.40;;;0.98;;
29362;SDS011;16349;53.672;10.014;2022-08-21T13:24:18;1.75;;;0.98;;
29362;SDS011;16349;53.672;10.014;2022-08-21T13:26:47;2.03;;;1.17;;
29362;SDS011;16349;53.672;10.014;2022-08-21T13:29:16;3.47;;;0.95;;
29362;SDS011;16349;53.672;10.014;2022-08-21T13:31:46;1.48;;;0.90;;
29362;SDS011;16349;53.672;10.014;2022-08-21T13:34:15;2.85;;;1.00;;
29362;SDS011;16349;53.672;10.014;2022-08-21T13:36:45;2.35;;;1.13;;
29362;SDS011;16349;53.672;10.014;2022-08-21T13:39:14;0.93;;;0.65;;
29362;SDS011;16349;53.672;10.014;2022-08-21T13:41:46;2.50;;;1.10;;
29362;SDS011;16349;53.672;10.014;2022-08-21T13:44:16;1.98;;;1.08;;
29362;SDS011;16349;53.672;10.014;2022-08-21T13:46:45;1.85;;;0.93;;
29362;SDS011;16349;53.672;10.014;2022-08-21T13:49:13;1.20;;;0.80;;
29362;SDS011;16349;53.672;10.014;2022-08-21T13:51:42;1.40;;;0.73;;
29362;SDS011;16349;53.672;10.014;2022-08-21T13:54:15;1.08;;;0.90;;
29362;SDS011;16349;53.672;10.014;2022-08-21T13:56:48;1.58;;;0.80;;
29362;SDS011;16349;53.672;10.014;2022-08-21T13:59:23;1.67;;;0.90;;
29362;SDS011;16349;53.672;10.014;2022-08-21T14:01:53;1.13;;;0.70;;
29362;SDS011;16349;53.672;10.014;2022-08-21T14:04:25;1.80;;;0.85;;
29362;SDS011;16349;53.672;10.014;2022-08-21T14:06:59;0.88;;;0.80;;
29362;SDS011;16349;53.672;10.014;2022-08-21T14:09:30;3.00;;;0.95;;
29362;SDS011;16349;53.672;10.014;2022-08-21T14:12:00;2.85;;;0.80;;
29362;SDS011;16349;53.672;10.014;2022-08-21T14:14:29;3.08;;;1.10;;
29362;SDS011;16349;53.672;10.014;2022-08-21T14:17:00;2.35;;;1.35;;
29362;SDS011;16349;53.672;10.014;2022-08-21T14:19:35;0.63;;;0.63;;
29362;SDS011;16349;53.672;10.014;2022-08-21T14:24:59;2.33;;;0.85;;
29362;SDS011;16349;53.672;10.014;2022-08-21T14:27:30;1.27;;;0.90;;
29362;SDS011;16349;53.672;10.014;2022-08-21T14:29:58;3.08;;;1.38;;
29362;SDS011;16349;53.672;10.014;2022-08-21T14:32:28;0.95;;;0.75;;
29362;SDS011;16349;53.672;10.014;2022-08-21T14:34:57;1.75;;;0.80;;
29362;SDS011;16349;53.672;10.014;2022-08-21T14:37:24;1.70;;;1.10;;
29362;SDS011;16349;53.672;10.014;2022-08-21T14:39:51;1.52;;;0.82;;
29362;SDS011;16349;53.672;10.014;2022-08-21T14:42:20;1.13;;;1.02;;
29362;SDS011;16349;53.672;10.014;2022-08-21T14:44:47;1.67;;;1.17;;
29362;SDS011;16349;53.672;10.014;2022-08-21T14:47:14;1.92;;;1.10;;
29362;SDS011;16349;53.672;10.014;2022-08-21T14:49:40;0.85;;;0.80;;
29362;SDS011;16349;53.672;10.014;2022-08-21T14:52:07;2.70;;;0.85;;